sensor_id;sensor_type;location;lat;lon;timestamp;temperature;humidity
44435;DHT22;30138;20.964;105.830;2023-07-29T00:03:35;30.50;71.70
44435;DHT22;30138;20.964;105.830;2023-07-29T00:08:43;30.50;71.90
44435;DHT22;30138;20.964;105.830;2023-07-29T00:13:52;30.50;72.00
44435;DHT22;30138;20.964;105.830;2023-07-29T00:19:02;30.60;72.30
44435;DHT22;30138;20.964;105.830;2023-07-29T00:24:11;30.60;72.40
44435;DHT22;30138;20.964;105.830;2023-07-29T00:29:19;30.60;72.70
44435;DHT22;30138;20.964;105.830;2023-07-29T00:34:31;30.60;72.80
44435;DHT22;30138;20.964;105.830;2023-07-29T00:39:41;30.60;72.90
44435;DHT22;30138;20.964;105.830;2023-07-29T00:44:50;30.60;73.00
44435;DHT22;30138;20.964;105.830;2023-07-29T00:50:00;30.60;73.00
44435;DHT22;30138;20.964;105.830;2023-07-29T00:55:15;30.60;73.90
44435;DHT22;30138;20.964;105.830;2023-07-29T01:00:24;30.70;73.30
44435;DHT22;30138;20.964;105.830;2023-07-29T01:05:39;30.70;73.40
44435;DHT22;30138;20.964;105.830;2023-07-29T01:11:01;30.70;73.40
44435;DHT22;30138;20.964;105.830;2023-07-29T01:16:19;30.80;73.60
44435;DHT22;30138;20.964;105.830;2023-07-29T01:21:32;30.70;73.70
44435;DHT22;30138;20.964;105.830;2023-07-29T01:26:43;30.80;73.80
44435;DHT22;30138;20.964;105.830;2023-07-29T01:31:56;30.80;73.90
44435;DHT22;30138;20.964;105.830;2023-07-29T01:37:09;30.80;74.00
44435;DHT22;30138;20.964;105.830;2023-07-29T01:42:24;30.80;74.10
44435;DHT22;30138;20.964;105.830;2023-07-29T01:47:33;30.80;74.20
44435;DHT22;30138;20.964;105.830;2023-07-29T01:52:44;30.90;74.40
44435;DHT22;30138;20.964;105.830;2023-07-29T01:57:55;30.90;74.40
44435;DHT22;30138;20.964;105.830;2023-07-29T02:03:05;30.90;74.40
44435;DHT22;30138;20.964;105.830;2023-07-29T02:08:16;30.90;74.60
44435;DHT22;30138;20.964;105.830;2023-07-29T02:13:25;30.90;74.60
44435;DHT22;30138;20.964;105.830;2023-07-29T02:18:33;31.00;74.60
44435;DHT22;30138;20.964;105.830;2023-07-29T02:23:41;31.00;74.60
44435;DHT22;30138;20.964;105.830;2023-07-29T02:28:52;31.10;74.70
44435;DHT22;30138;20.964;105.830;2023-07-29T02:34:02;31.10;74.80
44435;DHT22;30138;20.964;105.830;2023-07-29T02:39:11;31.10;74.90
44435;DHT22;30138;20.964;105.830;2023-07-29T02:44:41;31.10;75.00
44435;DHT22;30138;20.964;105.830;2023-07-29T02:49:49;31.20;75.00
44435;DHT22;30138;20.964;105.830;2023-07-29T02:54:57;31.20;75.00
44435;DHT22;30138;20.964;105.830;2023-07-29T03:00:08;31.30;75.00
44435;DHT22;30138;20.964;105.830;2023-07-29T03:05:17;31.30;75.00
44435;DHT22;30138;20.964;105.830;2023-07-29T03:10:25;31.30;75.20
44435;DHT22;30138;20.964;105.830;2023-07-29T03:15:35;31.40;75.40
44435;DHT22;30138;20.964;105.830;2023-07-29T03:20:51;31.40;75.50
44435;DHT22;30138;20.964;105.830;2023-07-29T03:25:59;31.40;75.80
44435;DHT22;30138;20.964;105.830;2023-07-29T03:31:22;31.50;75.90
44435;DHT22;30138;20.964;105.830;2023-07-29T03:36:34;31.50;76.00
44435;DHT22;30138;20.964;105.830;2023-07-29T03:41:43;31.50;77.60
44435;DHT22;30138;20.964;105.830;2023-07-29T03:46:53;31.40;71.20
44435;DHT22;30138;20.964;105.830;2023-07-29T03:52:01;31.30;61.90
44435;DHT22;30138;20.964;105.830;2023-07-29T03:57:10;31.10;56.50
44435;DHT22;30138;20.964;105.830;2023-07-29T04:02:21;30.80;53.20
44435;DHT22;30138;20.964;105.830;2023-07-29T04:07:29;30.60;50.70
44435;DHT22;30138;20.964;105.830;2023-07-29T04:12:38;30.40;49.00
44435;DHT22;30138;20.964;105.830;2023-07-29T04:17:48;30.20;48.10
44435;DHT22;30138;20.964;105.830;2023-07-29T04:22:57;30.10;51.70
44435;DHT22;30138;20.964;105.830;2023-07-29T04:28:06;30.00;50.00
44435;DHT22;30138;20.964;105.830;2023-07-29T04:33:17;29.90;54.20
44435;DHT22;30138;20.964;105.830;2023-07-29T04:38:32;29.90;51.40
44435;DHT22;30138;20.964;105.830;2023-07-29T04:43:42;29.80;49.60
44435;DHT22;30138;20.964;105.830;2023-07-29T04:48:53;29.80;52.50
44435;DHT22;30138;20.964;105.830;2023-07-29T04:54:02;29.70;50.70
44435;DHT22;30138;20.964;105.830;2023-07-29T04:59:12;29.70;52.70
44435;DHT22;30138;20.964;105.830;2023-07-29T05:04:23;29.70;49.80
44435;DHT22;30138;20.964;105.830;2023-07-29T05:09:31;29.70;53.40
44435;DHT22;30138;20.964;105.830;2023-07-29T05:14:42;29.60;52.60
44435;DHT22;30138;20.964;105.830;2023-07-29T05:19:53;29.60;54.80
44435;DHT22;30138;20.964;105.830;2023-07-29T05:25:02;29.60;53.10
44435;DHT22;30138;20.964;105.830;2023-07-29T05:30:11;29.50;50.00
44435;DHT22;30138;20.964;105.830;2023-07-29T05:35:25;29.50;52.30
44435;DHT22;30138;20.964;105.830;2023-07-29T05:40:34;29.50;50.60
44435;DHT22;30138;20.964;105.830;2023-07-29T05:45:43;29.50;53.10
44435;DHT22;30138;20.964;105.830;2023-07-29T05:50:53;29.50;50.30
44435;DHT22;30138;20.964;105.830;2023-07-29T05:56:02;29.50;47.80
44435;DHT22;30138;20.964;105.830;2023-07-29T06:01:10;29.50;49.30
44435;DHT22;30138;20.964;105.830;2023-07-29T06:06:20;29.40;49.50
44435;DHT22;30138;20.964;105.830;2023-07-29T06:11:28;29.40;47.50
44435;DHT22;30138;20.964;105.830;2023-07-29T06:16:37;29.40;50.70
44435;DHT22;30138;20.964;105.830;2023-07-29T06:21:47;29.40;48.00
44435;DHT22;30138;20.964;105.830;2023-07-29T06:26:56;29.40;50.70
44435;DHT22;30138;20.964;105.830;2023-07-29T06:32:06;29.40;49.00
44435;DHT22;30138;20.964;105.830;2023-07-29T06:37:16;29.30;46.50
44435;DHT22;30138;20.964;105.830;2023-07-29T06:42:24;29.30;50.20
44435;DHT22;30138;20.964;105.830;2023-07-29T06:47:32;29.20;48.40
44435;DHT22;30138;20.964;105.830;2023-07-29T06:52:44;29.30;52.50
44435;DHT22;30138;20.964;105.830;2023-07-29T06:57:51;29.40;51.80
44435;DHT22;30138;20.964;105.830;2023-07-29T07:02:59;29.40;53.30
44435;DHT22;30138;20.964;105.830;2023-07-29T07:08:11;29.40;49.80
44435;DHT22;30138;20.964;105.830;2023-07-29T07:13:19;29.50;52.30
44435;DHT22;30138;20.964;105.830;2023-07-29T07:18:28;29.40;49.20
44435;DHT22;30138;20.964;105.830;2023-07-29T07:23:38;29.30;46.80
44435;DHT22;30138;20.964;105.830;2023-07-29T07:28:47;29.30;45.10
44435;DHT22;30138;20.964;105.830;2023-07-29T07:33:56;29.20;44.10
44435;DHT22;30138;20.964;105.830;2023-07-29T07:39:06;29.20;50.40
44435;DHT22;30138;20.964;105.830;2023-07-29T07:44:15;29.30;54.60
44435;DHT22;30138;20.964;105.830;2023-07-29T07:49:23;29.30;51.30
44435;DHT22;30138;20.964;105.830;2023-07-29T07:54:34;29.20;48.40
44435;DHT22;30138;20.964;105.830;2023-07-29T07:59:42;29.20;46.40
44435;DHT22;30138;20.964;105.830;2023-07-29T08:04:51;29.10;45.20
44435;DHT22;30138;20.964;105.830;2023-07-29T08:10:02;29.00;44.30
44435;DHT22;30138;20.964;105.830;2023-07-29T08:15:11;29.00;43.60
44435;DHT22;30138;20.964;105.830;2023-07-29T08:20:19;29.00;43.10
44435;DHT22;30138;20.964;105.830;2023-07-29T08:25:30;28.90;43.40
44435;DHT22;30138;20.964;105.830;2023-07-29T08:30:39;28.90;43.20
44435;DHT22;30138;20.964;105.830;2023-07-29T08:35:47;28.90;43.40
44435;DHT22;30138;20.964;105.830;2023-07-29T08:41:03;28.90;42.80
44435;DHT22;30138;20.964;105.830;2023-07-29T08:46:13;28.90;42.30
44435;DHT22;30138;20.964;105.830;2023-07-29T08:51:22;28.90;41.90
44435;DHT22;30138;20.964;105.830;2023-07-29T08:56:33;28.90;41.60
44435;DHT22;30138;20.964;105.830;2023-07-29T09:01:41;28.90;41.40
44435;DHT22;30138;20.964;105.830;2023-07-29T09:06:51;28.80;41.10
44435;DHT22;30138;20.964;105.830;2023-07-29T09:12:01;28.90;41.00
44435;DHT22;30138;20.964;105.830;2023-07-29T09:17:09;28.80;40.80
44435;DHT22;30138;20.964;105.830;2023-07-29T09:22:21;28.80;40.60
44435;DHT22;30138;20.964;105.830;2023-07-29T09:27:31;28.80;40.50
44435;DHT22;30138;20.964;105.830;2023-07-29T09:32:43;28.80;40.50
44435;DHT22;30138;20.964;105.830;2023-07-29T09:37:52;28.80;40.40
44435;DHT22;30138;20.964;105.830;2023-07-29T09:43:03;28.80;40.20
44435;DHT22;30138;20.964;105.830;2023-07-29T09:48:11;28.80;43.30
44435;DHT22;30138;20.964;105.830;2023-07-29T09:53:23;28.80;48.70
44435;DHT22;30138;20.964;105.830;2023-07-29T09:58:38;28.90;46.70
44435;DHT22;30138;20.964;105.830;2023-07-29T10:03:50;28.90;46.40
44435;DHT22;30138;20.964;105.830;2023-07-29T10:09:00;29.00;55.40
44435;DHT22;30138;20.964;105.830;2023-07-29T10:14:12;28.90;51.60
44435;DHT22;30138;20.964;105.830;2023-07-29T10:19:20;28.80;48.60
44435;DHT22;30138;20.964;105.830;2023-07-29T10:24:32;28.60;45.70
44435;DHT22;30138;20.964;105.830;2023-07-29T10:29:45;28.50;43.80
44435;DHT22;30138;20.964;105.830;2023-07-29T10:34:55;28.40;42.40
44435;DHT22;30138;20.964;105.830;2023-07-29T10:40:07;28.30;41.50
44435;DHT22;30138;20.964;105.830;2023-07-29T10:45:23;28.20;40.80
44435;DHT22;30138;20.964;105.830;2023-07-29T10:50:31;28.00;40.40
44435;DHT22;30138;20.964;105.830;2023-07-29T10:55:39;27.90;40.10
44435;DHT22;30138;20.964;105.830;2023-07-29T11:00:50;27.90;39.80
44435;DHT22;30138;20.964;105.830;2023-07-29T11:06:05;27.70;39.50
44435;DHT22;30138;20.964;105.830;2023-07-29T11:11:14;27.70;39.30
44435;DHT22;30138;20.964;105.830;2023-07-29T11:16:24;27.70;40.80
44435;DHT22;30138;20.964;105.830;2023-07-29T11:21:34;27.80;45.50
44435;DHT22;30138;20.964;105.830;2023-07-29T11:26:47;27.80;44.10
44435;DHT22;30138;20.964;105.830;2023-07-29T11:31:57;27.90;47.90
44435;DHT22;30138;20.964;105.830;2023-07-29T11:37:05;27.90;47.20
44435;DHT22;30138;20.964;105.830;2023-07-29T11:42:15;28.00;50.00
44435;DHT22;30138;20.964;105.830;2023-07-29T11:47:25;28.00;50.40
44435;DHT22;30138;20.964;105.830;2023-07-29T11:52:34;28.10;52.50
44435;DHT22;30138;20.964;105.830;2023-07-29T11:57:43;28.20;51.40
44435;DHT22;30138;20.964;105.830;2023-07-29T12:02:53;28.20;50.70
44435;DHT22;30138;20.964;105.830;2023-07-29T12:08:01;28.30;52.10
44435;DHT22;30138;20.964;105.830;2023-07-29T12:13:09;28.40;50.30
44435;DHT22;30138;20.964;105.830;2023-07-29T12:18:30;28.50;56.30
44435;DHT22;30138;20.964;105.830;2023-07-29T12:23:38;28.50;57.30
44435;DHT22;30138;20.964;105.830;2023-07-29T12:28:47;28.60;53.00
44435;DHT22;30138;20.964;105.830;2023-07-29T12:33:59;28.60;53.90
44435;DHT22;30138;20.964;105.830;2023-07-29T12:39:15;28.70;55.30
44435;DHT22;30138;20.964;105.830;2023-07-29T12:44:25;28.70;54.70
44435;DHT22;30138;20.964;105.830;2023-07-29T12:49:36;28.70;55.20
44435;DHT22;30138;20.964;105.830;2023-07-29T12:54:44;28.80;54.00
44435;DHT22;30138;20.964;105.830;2023-07-29T12:59:52;28.80;56.00
44435;DHT22;30138;20.964;105.830;2023-07-29T13:05:02;28.80;53.30
44435;DHT22;30138;20.964;105.830;2023-07-29T13:10:10;28.80;55.00
44435;DHT22;30138;20.964;105.830;2023-07-29T13:15:19;28.80;51.50
44435;DHT22;30138;20.964;105.830;2023-07-29T13:20:32;28.90;53.90
44435;DHT22;30138;20.964;105.830;2023-07-29T13:25:43;28.80;51.80
44435;DHT22;30138;20.964;105.830;2023-07-29T13:30:52;28.90;56.70
44435;DHT22;30138;20.964;105.830;2023-07-29T13:36:03;28.90;55.90
44435;DHT22;30138;20.964;105.830;2023-07-29T13:41:13;28.90;52.80
44435;DHT22;30138;20.964;105.830;2023-07-29T13:46:21;28.90;54.40
44435;DHT22;30138;20.964;105.830;2023-07-29T13:51:30;28.90;50.70
44435;DHT22;30138;20.964;105.830;2023-07-29T13:56:39;28.90;55.00
44435;DHT22;30138;20.964;105.830;2023-07-29T14:01:48;28.90;59.60
44435;DHT22;30138;20.964;105.830;2023-07-29T14:07:01;28.90;58.60
44435;DHT22;30138;20.964;105.830;2023-07-29T14:12:10;28.90;55.30
44435;DHT22;30138;20.964;105.830;2023-07-29T14:17:20;28.90;56.20
44435;DHT22;30138;20.964;105.830;2023-07-29T14:22:30;28.90;52.20
44435;DHT22;30138;20.964;105.830;2023-07-29T14:27:39;28.90;54.10
44435;DHT22;30138;20.964;105.830;2023-07-29T14:32:48;28.80;51.50
44435;DHT22;30138;20.964;105.830;2023-07-29T14:37:59;28.90;52.40
44435;DHT22;30138;20.964;105.830;2023-07-29T14:43:07;28.80;52.50
44435;DHT22;30138;20.964;105.830;2023-07-29T14:48:15;28.80;50.80
44435;DHT22;30138;20.964;105.830;2023-07-29T14:53:25;28.80;52.90
44435;DHT22;30138;20.964;105.830;2023-07-29T14:58:33;28.70;49.70
44435;DHT22;30138;20.964;105.830;2023-07-29T15:03:41;28.70;52.20
44435;DHT22;30138;20.964;105.830;2023-07-29T15:08:56;28.70;50.20
44435;DHT22;30138;20.964;105.830;2023-07-29T15:14:04;28.70;51.20
44435;DHT22;30138;20.964;105.830;2023-07-29T15:19:13;28.70;51.60
44435;DHT22;30138;20.964;105.830;2023-07-29T15:24:23;28.70;53.00
44435;DHT22;30138;20.964;105.830;2023-07-29T15:29:31;28.60;53.70
44435;DHT22;30138;20.964;105.830;2023-07-29T15:34:39;28.60;54.30
44435;DHT22;30138;20.964;105.830;2023-07-29T15:39:49;28.50;55.00
44435;DHT22;30138;20.964;105.830;2023-07-29T15:44:57;28.60;60.00
44435;DHT22;30138;20.964;105.830;2023-07-29T15:50:05;28.50;57.50
44435;DHT22;30138;20.964;105.830;2023-07-29T15:55:15;28.60;60.00
44435;DHT22;30138;20.964;105.830;2023-07-29T16:00:23;28.50;57.50
44435;DHT22;30138;20.964;105.830;2023-07-29T16:05:32;28.50;57.50
44435;DHT22;30138;20.964;105.830;2023-07-29T16:10:42;28.60;56.50
44435;DHT22;30138;20.964;105.830;2023-07-29T16:15:50;28.60;54.00
44435;DHT22;30138;20.964;105.830;2023-07-29T16:20:58;28.50;56.00
44435;DHT22;30138;20.964;105.830;2023-07-29T16:26:08;28.50;52.60
44435;DHT22;30138;20.964;105.830;2023-07-29T16:31:18;28.50;54.80
44435;DHT22;30138;20.964;105.830;2023-07-29T16:36:26;28.50;56.60
44435;DHT22;30138;20.964;105.830;2023-07-29T16:41:37;28.50;58.80
44435;DHT22;30138;20.964;105.830;2023-07-29T16:46:48;28.50;56.80
44435;DHT22;30138;20.964;105.830;2023-07-29T16:51:55;28.50;55.60
44435;DHT22;30138;20.964;105.830;2023-07-29T16:57:07;28.50;53.70
44435;DHT22;30138;20.964;105.830;2023-07-29T17:02:19;28.50;55.10
44435;DHT22;30138;20.964;105.830;2023-07-29T17:07:27;28.50;51.80
44435;DHT22;30138;20.964;105.830;2023-07-29T17:12:38;28.50;54.10
44435;DHT22;30138;20.964;105.830;2023-07-29T17:17:47;28.50;58.40
44435;DHT22;30138;20.964;105.830;2023-07-29T17:22:56;28.50;58.50
44435;DHT22;30138;20.964;105.830;2023-07-29T17:28:06;28.50;54.90
44435;DHT22;30138;20.964;105.830;2023-07-29T17:33:14;28.50;56.00
44435;DHT22;30138;20.964;105.830;2023-07-29T17:38:24;28.50;52.20
44435;DHT22;30138;20.964;105.830;2023-07-29T17:43:33;28.50;54.00
44435;DHT22;30138;20.964;105.830;2023-07-29T17:48:47;28.50;52.40
44435;DHT22;30138;20.964;105.830;2023-07-29T17:53:59;28.40;52.40
44435;DHT22;30138;20.964;105.830;2023-07-29T17:59:08;28.40;53.20
44435;DHT22;30138;20.964;105.830;2023-07-29T18:04:16;28.40;50.90
44435;DHT22;30138;20.964;105.830;2023-07-29T18:09:25;28.40;53.20
44435;DHT22;30138;20.964;105.830;2023-07-29T18:14:36;28.40;50.20
44435;DHT22;30138;20.964;105.830;2023-07-29T18:19:44;28.40;52.80
44435;DHT22;30138;20.964;105.830;2023-07-29T18:24:53;28.40;51.20
44435;DHT22;30138;20.964;105.830;2023-07-29T18:30:03;28.40;53.30
44435;DHT22;30138;20.964;105.830;2023-07-29T18:35:11;28.30;52.00
44435;DHT22;30138;20.964;105.830;2023-07-29T18:40:20;28.30;52.60
44435;DHT22;30138;20.964;105.830;2023-07-29T18:45:33;28.30;53.90
44435;DHT22;30138;20.964;105.830;2023-07-29T18:50:42;28.50;55.10
44435;DHT22;30138;20.964;105.830;2023-07-29T18:55:51;28.70;56.00
44435;DHT22;30138;20.964;105.830;2023-07-29T19:01:02;28.90;56.90
44435;DHT22;30138;20.964;105.830;2023-07-29T19:06:10;29.10;57.60
44435;DHT22;30138;20.964;105.830;2023-07-29T19:11:21;29.20;58.20
44435;DHT22;30138;20.964;105.830;2023-07-29T19:16:32;29.40;58.80
44435;DHT22;30138;20.964;105.830;2023-07-29T19:21:40;29.50;59.30
44435;DHT22;30138;20.964;105.830;2023-07-29T19:26:48;29.50;59.70
44435;DHT22;30138;20.964;105.830;2023-07-29T19:31:59;29.70;60.30
44435;DHT22;30138;20.964;105.830;2023-07-29T19:37:06;29.70;60.80
44435;DHT22;30138;20.964;105.830;2023-07-29T19:42:16;29.80;61.30
44435;DHT22;30138;20.964;105.830;2023-07-29T19:47:26;29.90;61.80
44435;DHT22;30138;20.964;105.830;2023-07-29T19:52:34;29.90;62.20
44435;DHT22;30138;20.964;105.830;2023-07-29T19:57:41;30.00;62.50
44435;DHT22;30138;20.964;105.830;2023-07-29T20:02:52;30.00;62.90
44435;DHT22;30138;20.964;105.830;2023-07-29T20:07:59;30.10;63.20
44435;DHT22;30138;20.964;105.830;2023-07-29T20:13:08;30.10;63.50
44435;DHT22;30138;20.964;105.830;2023-07-29T20:18:19;30.20;63.90
44435;DHT22;30138;20.964;105.830;2023-07-29T20:23:27;30.20;64.20
44435;DHT22;30138;20.964;105.830;2023-07-29T20:28:35;30.20;64.50
44435;DHT22;30138;20.964;105.830;2023-07-29T20:33:46;30.30;64.80
44435;DHT22;30138;20.964;105.830;2023-07-29T20:38:58;30.30;65.20
44435;DHT22;30138;20.964;105.830;2023-07-29T20:44:06;30.40;65.60
44435;DHT22;30138;20.964;105.830;2023-07-29T20:49:18;30.40;66.00
44435;DHT22;30138;20.964;105.830;2023-07-29T20:54:26;30.40;66.30
44435;DHT22;30138;20.964;105.830;2023-07-29T20:59:34;30.40;66.60
44435;DHT22;30138;20.964;105.830;2023-07-29T21:04:44;30.50;66.90
44435;DHT22;30138;20.964;105.830;2023-07-29T21:09:52;30.50;67.00
44435;DHT22;30138;20.964;105.830;2023-07-29T21:15:01;30.50;67.20
44435;DHT22;30138;20.964;105.830;2023-07-29T21:20:12;30.50;67.50
44435;DHT22;30138;20.964;105.830;2023-07-29T21:25:20;30.60;67.70
44435;DHT22;30138;20.964;105.830;2023-07-29T21:30:30;30.60;67.80
44435;DHT22;30138;20.964;105.830;2023-07-29T21:35:40;30.60;68.00
44435;DHT22;30138;20.964;105.830;2023-07-29T21:40:49;30.60;68.10
44435;DHT22;30138;20.964;105.830;2023-07-29T21:45:57;30.60;68.30
44435;DHT22;30138;20.964;105.830;2023-07-29T21:51:08;30.70;68.50
44435;DHT22;30138;20.964;105.830;2023-07-29T21:56:17;30.70;68.70
44435;DHT22;30138;20.964;105.830;2023-07-29T22:01:25;30.70;68.90
44435;DHT22;30138;20.964;105.830;2023-07-29T22:06:35;30.70;69.20
44435;DHT22;30138;20.964;105.830;2023-07-29T22:11:43;30.70;69.50
44435;DHT22;30138;20.964;105.830;2023-07-29T22:16:51;30.70;69.80
44435;DHT22;30138;20.964;105.830;2023-07-29T22:22:01;30.70;70.00
44435;DHT22;30138;20.964;105.830;2023-07-29T22:27:09;30.80;70.30
44435;DHT22;30138;20.964;105.830;2023-07-29T22:32:17;30.70;70.50
44435;DHT22;30138;20.964;105.830;2023-07-29T22:37:27;30.80;70.70
44435;DHT22;30138;20.964;105.830;2023-07-29T22:42:35;30.80;71.00
44435;DHT22;30138;20.964;105.830;2023-07-29T22:47:43;30.80;71.20
44435;DHT22;30138;20.964;105.830;2023-07-29T22:52:55;30.80;71.30
44435;DHT22;30138;20.964;105.830;2023-07-29T22:58:03;30.80;71.40
44435;DHT22;30138;20.964;105.830;2023-07-29T23:03:11;30.80;71.60
44435;DHT22;30138;20.964;105.830;2023-07-29T23:08:20;30.90;71.80
44435;DHT22;30138;20.964;105.830;2023-07-29T23:13:28;30.90;72.00
44435;DHT22;30138;20.964;105.830;2023-07-29T23:18:36;30.90;72.10
44435;DHT22;30138;20.964;105.830;2023-07-29T23:23:46;30.90;72.30
44435;DHT22;30138;20.964;105.830;2023-07-29T23:28:54;30.90;72.40
44435;DHT22;30138;20.964;105.830;2023-07-29T23:34:02;30.90;72.50
44435;DHT22;30138;20.964;105.830;2023-07-29T23:39:13;30.90;72.70
44435;DHT22;30138;20.964;105.830;2023-07-29T23:44:21;30.90;72.80
44435;DHT22;30138;20.964;105.830;2023-07-29T23:49:30;30.90;73.10
44435;DHT22;30138;20.964;105.830;2023-07-29T23:54:39;30.90;73.30
44435;DHT22;30138;20.964;105.830;2023-07-29T23:59:48;30.90;73.50
